Egmondgracht — PDWG — position and weather

sailwx.info

Track history (hours):
 
Tides and Currents Weather Stations Pressure Air Temp Water Temp Dewpoint Dewpoint Depression Visibility Wind Speed Wind Dir Waves Ship Positions

Egmondgracht

Last reported at 2015-Aug-20 11:33 UTC. Time now 2015-Aug-30 11:56 UTC.
Position N 39°26' W 032°10'.
Warning: this ship's position is 10 days out of date.

Length 136 m; beam 19 m; draft 9 m.

Type: Cargo ship. MMSI: 245716000.

Date/timePositionNaut miles runAvg speedWind from/ knotsBaromVisibWave heightAir tempDewpointWater temp
2015-Aug-20 11:33N 39°26' W 032°10'5 5.4
2015-Aug-20 10:33N 39°28' W 032°03'2 2.3
2015-Aug-20 09:31N 39°30' W 032°01'1111.4
2015-Aug-20 08:33N 39°35' W 031°49'1212.1
2015-Aug-20 07:33N 39°41' W 031°35'1311.8
2015-Aug-20 06:26N 39°47' W 031°20'1011.9
2015-Aug-20 05:33N 39°52' W 031°08'10611.8
2015-Aug-19 20:33N 40°40' W 029°03'2311.3
2015-Aug-19 18:32N 40°51' W 028°37'  
2015-Aug-15 06:04N 50°13' W 001°33'610.9
2015-Aug-15 05:30N 50°15' W 001°24'1713.0
2015-Aug-15 04:11N 50°19' W 000°58'3813.6
2015-Aug-15 01:23N 50°30' W 000°01'1112.5
2015-Aug-15 00:29N 50°33' E 000°16'1111.7
2015-Aug-14 23:33N 50°36' E 000°32'1110.9
2015-Aug-14 22:33N 50°42' E 000°47'1110.8
2015-Aug-14 21:33N 50°49' E 001°00'1211.8
2015-Aug-14 20:33N 50°57' E 001°14'1413.7
2015-Aug-14 19:33N 51°06' E 001°31'1414.2
2015-Aug-14 18:33N 51°15' E 001°48'1212.0
2015-Aug-14 17:34N 51°25' E 001°60'1211.7
2015-Aug-14 16:33N 51°21' E 002°17'1111.5
2015-Aug-14 15:33N 51°23' E 002°35'10 9.9
2015-Aug-14 14:33N 51°23' E 002°51'1010.0
2015-Aug-14 13:33N 51°24' E 003°07'1010.2
2015-Aug-14 12:33N 51°25' E 003°24'9 9.1
2015-Aug-14 11:33N 51°25' E 003°38'10 9.6
2015-Aug-14 10:33N 51°21' E 003°52'7 6.8
2015-Aug-14 09:33N 51°24' E 004°02'9 8.9
2015-Aug-14 08:33N 51°21' E 004°16'1 1.0
2015-Aug-14 07:33N 51°21' E 004°17'3 3.3
2015-Aug-14 06:33N 51°18' E 004°20'2 2.1
2015-Aug-14 05:33N 51°17' E 004°23'0 0.0
2015-Aug-14 04:33N 51°17' E 004°23'0 0.0
2015-Aug-14 03:33N 51°17' E 004°23'0 0.0
2015-Aug-14 02:33N 51°17' E 004°23'0 0.0
2015-Aug-14 01:30N 51°17' E 004°23'0 0.0
2015-Aug-14 00:33N 51°17' E 004°23'0 0.0
2015-Aug-13 23:33N 51°17' E 004°23'0 0.0
2015-Aug-13 22:33N 51°17' E 004°23'0 0.0
2015-Aug-13 21:33N 51°17' E 004°23'0 0.0
2015-Aug-13 20:33N 51°17' E 004°23'0 0.0
2015-Aug-13 19:33N 51°17' E 004°23'0 0.0
2015-Aug-13 18:33N 51°17' E 004°23'0 0.0
2015-Aug-13 17:33N 51°17' E 004°23'0 0.0
2015-Aug-13 16:33N 51°17' E 004°23'0 0.0
2015-Aug-13 15:27N 51°17' E 004°23'0 0.0
2015-Aug-13 14:33N 51°17' E 004°23'0 0.0
2015-Aug-13 13:30N 51°17' E 004°23'0 0.0
2015-Aug-13 12:33N 51°17' E 004°23'0 0.0
2015-Aug-13 11:33N 51°17' E 004°23'0 0.0
2015-Aug-13 10:33N 51°17' E 004°23'0 0.0
2015-Aug-13 09:33N 51°17' E 004°23'0 0.0
2015-Aug-13 08:33N 51°17' E 004°23'0 0.0
2015-Aug-13 07:33N 51°17' E 004°23'0 0.0
2015-Aug-13 06:33N 51°17' E 004°23'0 0.0
2015-Aug-13 05:33N 51°17' E 004°23'0 0.0
2015-Aug-13 04:33N 51°17' E 004°23'0 0.0
2015-Aug-13 03:33N 51°17' E 004°23'0 0.0
2015-Aug-13 02:33N 51°17' E 004°23'0 0.0
2015-Aug-13 01:32N 51°17' E 004°23'0 0.0
2015-Aug-13 00:32N 51°17' E 004°23'0 0.0
2015-Aug-12 23:29N 51°17' E 004°23'0 0.0
2015-Aug-12 22:32N 51°17' E 004°23'0 0.0
2015-Aug-12 21:32N 51°17' E 004°23'0 0.0
2015-Aug-12 20:29N 51°17' E 004°23'0 0.0
2015-Aug-12 19:32N 51°17' E 004°23'0 0.0
2015-Aug-12 18:29N 51°17' E 004°23'0 0.0
2015-Aug-12 17:32N 51°17' E 004°23'0 0.0
2015-Aug-12 15:23N 51°17' E 004°23'0 0.0
2015-Aug-12 14:32N 51°17' E 004°23'0 0.0
2015-Aug-12 13:32N 51°17' E 004°23'0 0.0
2015-Aug-12 12:32N 51°17' E 004°23'0 0.0
2015-Aug-12 11:30N 51°17' E 004°23'0 0.0
2015-Aug-12 10:33N 51°17' E 004°23'0 0.0
2015-Aug-12 09:33N 51°17' E 004°23'0 0.0
2015-Aug-12 08:33N 51°17' E 004°23'0 0.0
2015-Aug-12 07:33N 51°17' E 004°23'0 0.0
2015-Aug-12 06:33N 51°17' E 004°23'0 0.0
2015-Aug-12 05:33N 51°17' E 004°23'0 0.0
2015-Aug-12 04:32N 51°17' E 004°23'0 0.0
2015-Aug-12 03:32N 51°17' E 004°23'0 0.0
2015-Aug-12 02:32N 51°17' E 004°23'2 2.0
2015-Aug-12 01:33N 51°18' E 004°20'3 3.4
2015-Aug-12 00:33N 51°21' E 004°17'0 0.1
2015-Aug-11 23:33N 51°21' E 004°17'7 7.2
2015-Aug-11 22:34N 51°22' E 004°06'9 9.3
2015-Aug-11 21:33N 51°21' E 003°51'1110.7
2015-Aug-11 20:34N 51°26' E 003°37'9 9.3
2015-Aug-11 19:33N 51°32' E 003°25'1010.3
2015-Aug-11 18:33N 51°41' E 003°17'7 7.1
2015-Aug-11 17:33N 51°48' E 003°15'1413.6
2015-Aug-11 16:33N 52°01' E 003°21'1313.3
2015-Aug-11 15:33N 52°15' E 003°24'1312.7
2015-Aug-11 14:32N 52°27' E 003°28'3611.8
2015-Aug-11 11:31N 52°57' E 003°59'1513.3
2015-Aug-11 10:22N 53°07' E 004°19'2513.6
2015-Aug-11 08:33N 53°28' E 004°40'1413.7
2015-Aug-11 07:33N 53°34' E 005°01'1312.7
2015-Aug-11 06:33N 53°38' E 005°21'1211.8
2015-Aug-11 05:33N 53°42' E 005°40'1211.6
2015-Aug-11 04:33N 53°45' E 005°59'1611.7
2015-Aug-11 03:12N 53°50' E 006°24'812.3
2015-Aug-11 02:33N 53°52' E 006°38'1313.1
2015-Aug-11 01:33N 53°56' E 006°59'1413.6
2015-Aug-11 00:33N 53°59' E 007°21'1413.8
2015-Aug-10 23:33N 54°02' E 007°44'1413.9
2015-Aug-10 22:33N 54°01' E 008°08'1414.0
2015-Aug-10 21:33N 53°58' E 008°31'1111.5
2015-Aug-10 20:34N 53°51' E 008°46'1110.9
2015-Aug-10 19:33N 53°52' E 009°04'10 9.9
2015-Aug-10 18:33N 53°50' E 009°21'1312.6
2015-Aug-10 17:33N 53°39' E 009°31'1212.5
2015-Aug-10 16:33N 53°33' E 009°50'6 5.9
2015-Aug-10 15:33N 53°32' E 009°59'0 0.0
2015-Aug-10 14:27N 53°32' E 009°59'0 0.0
2015-Aug-10 13:33N 53°32' E 009°59'0 0.0
2015-Aug-10 12:33N 53°32' E 009°59'0 0.0
2015-Aug-10 11:33N 53°32' E 009°59'  
Track history (hours):
 
Tides and Currents Weather Stations Pressure Air Temp Water Temp Dewpoint Dewpoint Depression Visibility Wind Speed Wind Dir Waves Ship Positions

Egmondgracht

Last reported at 2015-Aug-20 11:33 UTC. Time now 2015-Aug-30 11:56 UTC.
Position N 39°26' W 032°10'.
Warning: this ship's position is 10 days out of date.

Length 136 m; beam 19 m; draft 9 m.

Type: Cargo ship. MMSI: 245716000.

Date/timePositionNaut miles runAvg speedWind from/ knotsBaromVisibWave heightAir tempDewpointWater temp
2015-Aug-20 11:33N 39°26' W 032°10'5 5.4
2015-Aug-20 10:33N 39°28' W 032°03'2 2.3
2015-Aug-20 09:31N 39°30' W 032°01'1111.4
2015-Aug-20 08:33N 39°35' W 031°49'1212.1
2015-Aug-20 07:33N 39°41' W 031°35'1311.8
2015-Aug-20 06:26N 39°47' W 031°20'1011.9
2015-Aug-20 05:33N 39°52' W 031°08'10611.8
2015-Aug-19 20:33N 40°40' W 029°03'2311.3
2015-Aug-19 18:32N 40°51' W 028°37'  
2015-Aug-15 06:04N 50°13' W 001°33'610.9
2015-Aug-15 05:30N 50°15' W 001°24'1713.0
2015-Aug-15 04:11N 50°19' W 000°58'3813.6
2015-Aug-15 01:23N 50°30' W 000°01'1112.5
2015-Aug-15 00:29N 50°33' E 000°16'1111.7
2015-Aug-14 23:33N 50°36' E 000°32'1110.9
2015-Aug-14 22:33N 50°42' E 000°47'1110.8
2015-Aug-14 21:33N 50°49' E 001°00'1211.8
2015-Aug-14 20:33N 50°57' E 001°14'1413.7
2015-Aug-14 19:33N 51°06' E 001°31'1414.2
2015-Aug-14 18:33N 51°15' E 001°48'1212.0
2015-Aug-14 17:34N 51°25' E 001°60'1211.7
2015-Aug-14 16:33N 51°21' E 002°17'1111.5
2015-Aug-14 15:33N 51°23' E 002°35'10 9.9
2015-Aug-14 14:33N 51°23' E 002°51'1010.0
2015-Aug-14 13:33N 51°24' E 003°07'1010.2
2015-Aug-14 12:33N 51°25' E 003°24'9 9.1
2015-Aug-14 11:33N 51°25' E 003°38'10 9.6
2015-Aug-14 10:33N 51°21' E 003°52'7 6.8
2015-Aug-14 09:33N 51°24' E 004°02'9 8.9
2015-Aug-14 08:33N 51°21' E 004°16'1 1.0
2015-Aug-14 07:33N 51°21' E 004°17'3 3.3
2015-Aug-14 06:33N 51°18' E 004°20'2 2.1
2015-Aug-14 05:33N 51°17' E 004°23'0 0.0
2015-Aug-14 04:33N 51°17' E 004°23'0 0.0
2015-Aug-14 03:33N 51°17' E 004°23'0 0.0
2015-Aug-14 02:33N 51°17' E 004°23'0 0.0
2015-Aug-14 01:30N 51°17' E 004°23'0 0.0
2015-Aug-14 00:33N 51°17' E 004°23'0 0.0
2015-Aug-13 23:33N 51°17' E 004°23'0 0.0
2015-Aug-13 22:33N 51°17' E 004°23'0 0.0
2015-Aug-13 21:33N 51°17' E 004°23'0 0.0
2015-Aug-13 20:33N 51°17' E 004°23'0 0.0
2015-Aug-13 19:33N 51°17' E 004°23'0 0.0
2015-Aug-13 18:33N 51°17' E 004°23'0 0.0
2015-Aug-13 17:33N 51°17' E 004°23'0 0.0
2015-Aug-13 16:33N 51°17' E 004°23'0 0.0
2015-Aug-13 15:27N 51°17' E 004°23'0 0.0
2015-Aug-13 14:33N 51°17' E 004°23'0 0.0
2015-Aug-13 13:30N 51°17' E 004°23'0 0.0
2015-Aug-13 12:33N 51°17' E 004°23'0 0.0
2015-Aug-13 11:33N 51°17' E 004°23'0 0.0
2015-Aug-13 10:33N 51°17' E 004°23'0 0.0
2015-Aug-13 09:33N 51°17' E 004°23'0 0.0
2015-Aug-13 08:33N 51°17' E 004°23'0 0.0
2015-Aug-13 07:33N 51°17' E 004°23'0 0.0
2015-Aug-13 06:33N 51°17' E 004°23'0 0.0
2015-Aug-13 05:33N 51°17' E 004°23'0 0.0
2015-Aug-13 04:33N 51°17' E 004°23'0 0.0
2015-Aug-13 03:33N 51°17' E 004°23'0 0.0
2015-Aug-13 02:33N 51°17' E 004°23'0 0.0
2015-Aug-13 01:32N 51°17' E 004°23'0 0.0
2015-Aug-13 00:32N 51°17' E 004°23'0 0.0
2015-Aug-12 23:29N 51°17' E 004°23'0 0.0
2015-Aug-12 22:32N 51°17' E 004°23'0 0.0
2015-Aug-12 21:32N 51°17' E 004°23'0 0.0
2015-Aug-12 20:29N 51°17' E 004°23'0 0.0
2015-Aug-12 19:32N 51°17' E 004°23'0 0.0
2015-Aug-12 18:29N 51°17' E 004°23'0 0.0
2015-Aug-12 17:32N 51°17' E 004°23'0 0.0
2015-Aug-12 15:23N 51°17' E 004°23'0 0.0
2015-Aug-12 14:32N 51°17' E 004°23'0 0.0
2015-Aug-12 13:32N 51°17' E 004°23'0 0.0
2015-Aug-12 12:32N 51°17' E 004°23'0 0.0
2015-Aug-12 11:30N 51°17' E 004°23'0 0.0
2015-Aug-12 10:33N 51°17' E 004°23'0 0.0
2015-Aug-12 09:33N 51°17' E 004°23'0 0.0
2015-Aug-12 08:33N 51°17' E 004°23'0 0.0
2015-Aug-12 07:33N 51°17' E 004°23'0 0.0
2015-Aug-12 06:33N 51°17' E 004°23'0 0.0
2015-Aug-12 05:33N 51°17' E 004°23'0 0.0
2015-Aug-12 04:32N 51°17' E 004°23'0 0.0
2015-Aug-12 03:32N 51°17' E 004°23'0 0.0
2015-Aug-12 02:32N 51°17' E 004°23'2 2.0
2015-Aug-12 01:33N 51°18' E 004°20'3 3.4
2015-Aug-12 00:33N 51°21' E 004°17'0 0.1
2015-Aug-11 23:33N 51°21' E 004°17'7 7.2
2015-Aug-11 22:34N 51°22' E 004°06'9 9.3
2015-Aug-11 21:33N 51°21' E 003°51'1110.7
2015-Aug-11 20:34N 51°26' E 003°37'9 9.3
2015-Aug-11 19:33N 51°32' E 003°25'1010.3
2015-Aug-11 18:33N 51°41' E 003°17'7 7.1
2015-Aug-11 17:33N 51°48' E 003°15'1413.6
2015-Aug-11 16:33N 52°01' E 003°21'1313.3
2015-Aug-11 15:33N 52°15' E 003°24'1312.7
2015-Aug-11 14:32N 52°27' E 003°28'3611.8
2015-Aug-11 11:31N 52°57' E 003°59'1513.3
2015-Aug-11 10:22N 53°07' E 004°19'2513.6
2015-Aug-11 08:33N 53°28' E 004°40'1413.7
2015-Aug-11 07:33N 53°34' E 005°01'1312.7
2015-Aug-11 06:33N 53°38' E 005°21'1211.8
2015-Aug-11 05:33N 53°42' E 005°40'1211.6
2015-Aug-11 04:33N 53°45' E 005°59'1611.7
2015-Aug-11 03:12N 53°50' E 006°24'812.3
2015-Aug-11 02:33N 53°52' E 006°38'1313.1
2015-Aug-11 01:33N 53°56' E 006°59'1413.6
2015-Aug-11 00:33N 53°59' E 007°21'1413.8
2015-Aug-10 23:33N 54°02' E 007°44'1413.9
2015-Aug-10 22:33N 54°01' E 008°08'1414.0
2015-Aug-10 21:33N 53°58' E 008°31'1111.5
2015-Aug-10 20:34N 53°51' E 008°46'1110.9
2015-Aug-10 19:33N 53°52' E 009°04'10 9.9
2015-Aug-10 18:33N 53°50' E 009°21'1312.6
2015-Aug-10 17:33N 53°39' E 009°31'1212.5
2015-Aug-10 16:33N 53°33' E 009°50'6 5.9
2015-Aug-10 15:33N 53°32' E 009°59'0 0.0
2015-Aug-10 14:27N 53°32' E 009°59'0 0.0
2015-Aug-10 13:33N 53°32' E 009°59'0 0.0
2015-Aug-10 12:33N 53°32' E 009°59'0 0.0
2015-Aug-10 11:33N 53°32' E 009°59'  

Dump ship's entire track history